Terminal Aerodrome Forecast
Issued by NWS

Home | Current Version | Previous Version | Text Only | Print | Product List | Glossary On
Versions: 1 2 3 4 5 6 7 8 9 10 11 12 13 14 15 16
948
FTUS42 TJSJ 271122
TAFJMZ
TAF
TJMZ 271122Z 2712/2812 07005KT P6SM FEW080
     FM271500 29009KT P6SM FEW030 SCT060
     FM271730 29010KT P6SM VCTS SCT025CB BKN050
     FM272300 07006KT P6SM FEW025 SCT100
      AMD NOT SKED=

USA.gov is the U.S. government's official web portal to all federal, state and local government web resources and services.